sensor_id;sensor_type;location;lat;lon;timestamp;P1;durP1;ratioP1;P2;durP2;ratioP2
15526;SDS011;7865;50.918;4.510;2024-01-07T00:01:31;16.90;;;11.30;;
15526;SDS011;7865;50.918;4.510;2024-01-07T00:06:32;15.73;;;11.23;;
15526;SDS011;7865;50.918;4.510;2024-01-07T00:11:33;17.60;;;11.17;;
15526;SDS011;7865;50.918;4.510;2024-01-07T00:16:34;18.00;;;11.40;;
15526;SDS011;7865;50.918;4.510;2024-01-07T00:21:36;17.10;;;12.50;;
15526;SDS011;7865;50.918;4.510;2024-01-07T00:26:37;14.97;;;12.27;;
15526;SDS011;7865;50.918;4.510;2024-01-07T00:31:38;16.80;;;11.60;;
15526;SDS011;7865;50.918;4.510;2024-01-07T00:36:40;16.33;;;11.93;;
15526;SDS011;7865;50.918;4.510;2024-01-07T00:41:41;15.33;;;11.70;;
15526;SDS011;7865;50.918;4.510;2024-01-07T00:46:42;17.93;;;11.20;;
15526;SDS011;7865;50.918;4.510;2024-01-07T00:51:47;17.50;;;11.20;;
15526;SDS011;7865;50.918;4.510;2024-01-07T00:56:48;16.47;;;10.90;;
15526;SDS011;7865;50.918;4.510;2024-01-07T01:01:49;14.87;;;11.83;;
15526;SDS011;7865;50.918;4.510;2024-01-07T01:06:51;18.77;;;12.37;;
15526;SDS011;7865;50.918;4.510;2024-01-07T01:11:52;15.67;;;11.93;;
15526;SDS011;7865;50.918;4.510;2024-01-07T01:16:54;18.40;;;12.87;;
15526;SDS011;7865;50.918;4.510;2024-01-07T01:21:55;17.67;;;11.80;;
15526;SDS011;7865;50.918;4.510;2024-01-07T01:26:57;16.67;;;12.53;;
15526;SDS011;7865;50.918;4.510;2024-01-07T01:31:58;16.27;;;13.67;;
15526;SDS011;7865;50.918;4.510;2024-01-07T01:36:59;18.57;;;13.53;;
15526;SDS011;7865;50.918;4.510;2024-01-07T01:42:01;16.87;;;12.37;;
15526;SDS011;7865;50.918;4.510;2024-01-07T01:47:02;14.47;;;10.90;;
15526;SDS011;7865;50.918;4.510;2024-01-07T01:52:04;15.80;;;12.17;;
15526;SDS011;7865;50.918;4.510;2024-01-07T01:57:06;14.30;;;10.97;;
15526;SDS011;7865;50.918;4.510;2024-01-07T02:02:10;17.10;;;12.10;;
15526;SDS011;7865;50.918;4.510;2024-01-07T02:07:11;16.63;;;11.83;;
15526;SDS011;7865;50.918;4.510;2024-01-07T02:12:13;16.73;;;12.10;;
15526;SDS011;7865;50.918;4.510;2024-01-07T02:17:15;14.23;;;11.87;;
15526;SDS011;7865;50.918;4.510;2024-01-07T02:22:17;15.67;;;11.53;;
15526;SDS011;7865;50.918;4.510;2024-01-07T02:27:19;15.43;;;11.50;;
15526;SDS011;7865;50.918;4.510;2024-01-07T02:32:20;18.03;;;14.30;;
15526;SDS011;7865;50.918;4.510;2024-01-07T02:37:22;19.07;;;13.00;;
15526;SDS011;7865;50.918;4.510;2024-01-07T02:42:23;20.10;;;14.47;;
15526;SDS011;7865;50.918;4.510;2024-01-07T02:47:25;22.53;;;14.13;;
15526;SDS011;7865;50.918;4.510;2024-01-07T02:52:26;20.57;;;14.03;;
15526;SDS011;7865;50.918;4.510;2024-01-07T02:57:28;24.33;;;16.07;;
15526;SDS011;7865;50.918;4.510;2024-01-07T03:02:29;24.83;;;16.33;;
15526;SDS011;7865;50.918;4.510;2024-01-07T03:07:30;23.63;;;16.57;;
15526;SDS011;7865;50.918;4.510;2024-01-07T03:12:31;27.90;;;17.20;;
15526;SDS011;7865;50.918;4.510;2024-01-07T03:17:32;23.80;;;17.00;;
15526;SDS011;7865;50.918;4.510;2024-01-07T03:22:34;27.97;;;17.13;;
15526;SDS011;7865;50.918;4.510;2024-01-07T03:27:35;32.77;;;19.40;;
15526;SDS011;7865;50.918;4.510;2024-01-07T03:32:36;35.70;;;21.37;;
15526;SDS011;7865;50.918;4.510;2024-01-07T03:37:37;36.47;;;22.47;;
15526;SDS011;7865;50.918;4.510;2024-01-07T03:42:39;37.80;;;23.63;;
15526;SDS011;7865;50.918;4.510;2024-01-07T03:47:40;38.03;;;24.73;;
15526;SDS011;7865;50.918;4.510;2024-01-07T03:52:41;41.67;;;25.80;;
15526;SDS011;7865;50.918;4.510;2024-01-07T03:57:43;43.13;;;25.50;;
15526;SDS011;7865;50.918;4.510;2024-01-07T04:02:44;44.57;;;27.60;;
15526;SDS011;7865;50.918;4.510;2024-01-07T04:07:45;38.73;;;23.83;;
15526;SDS011;7865;50.918;4.510;2024-01-07T04:12:46;37.60;;;25.07;;
15526;SDS011;7865;50.918;4.510;2024-01-07T04:17:48;38.33;;;23.73;;
15526;SDS011;7865;50.918;4.510;2024-01-07T04:22:49;42.40;;;25.07;;
15526;SDS011;7865;50.918;4.510;2024-01-07T04:27:50;40.57;;;24.27;;
15526;SDS011;7865;50.918;4.510;2024-01-07T04:32:52;35.57;;;22.70;;
15526;SDS011;7865;50.918;4.510;2024-01-07T04:37:53;32.53;;;21.00;;
15526;SDS011;7865;50.918;4.510;2024-01-07T04:42:54;36.67;;;22.07;;
15526;SDS011;7865;50.918;4.510;2024-01-07T04:47:55;37.27;;;21.90;;
15526;SDS011;7865;50.918;4.510;2024-01-07T04:52:57;31.93;;;20.40;;
15526;SDS011;7865;50.918;4.510;2024-01-07T04:57:58;37.93;;;24.17;;
15526;SDS011;7865;50.918;4.510;2024-01-07T05:02:59;40.23;;;25.70;;
15526;SDS011;7865;50.918;4.510;2024-01-07T05:08:01;37.90;;;23.07;;
15526;SDS011;7865;50.918;4.510;2024-01-07T05:13:02;36.40;;;22.83;;
15526;SDS011;7865;50.918;4.510;2024-01-07T05:18:07;37.20;;;23.97;;
15526;SDS011;7865;50.918;4.510;2024-01-07T05:23:10;36.70;;;22.83;;
15526;SDS011;7865;50.918;4.510;2024-01-07T05:28:11;42.87;;;25.67;;
15526;SDS011;7865;50.918;4.510;2024-01-07T05:33:13;35.63;;;22.17;;
15526;SDS011;7865;50.918;4.510;2024-01-07T05:38:14;41.13;;;23.70;;
15526;SDS011;7865;50.918;4.510;2024-01-07T05:43:15;41.87;;;26.17;;
15526;SDS011;7865;50.918;4.510;2024-01-07T05:48:16;44.50;;;26.63;;
15526;SDS011;7865;50.918;4.510;2024-01-07T05:53:18;41.30;;;24.57;;
15526;SDS011;7865;50.918;4.510;2024-01-07T05:58:19;43.83;;;25.00;;
15526;SDS011;7865;50.918;4.510;2024-01-07T06:03:20;43.90;;;25.07;;
15526;SDS011;7865;50.918;4.510;2024-01-07T06:08:22;42.40;;;24.70;;
15526;SDS011;7865;50.918;4.510;2024-01-07T06:13:23;40.40;;;23.10;;
15526;SDS011;7865;50.918;4.510;2024-01-07T06:18:24;42.57;;;23.50;;
15526;SDS011;7865;50.918;4.510;2024-01-07T06:23:26;44.47;;;24.53;;
15526;SDS011;7865;50.918;4.510;2024-01-07T06:28:27;41.10;;;23.00;;
15526;SDS011;7865;50.918;4.510;2024-01-07T06:33:28;45.47;;;24.50;;
15526;SDS011;7865;50.918;4.510;2024-01-07T06:38:29;41.53;;;23.43;;
15526;SDS011;7865;50.918;4.510;2024-01-07T06:43:30;37.97;;;22.10;;
15526;SDS011;7865;50.918;4.510;2024-01-07T06:48:32;46.00;;;23.23;;
15526;SDS011;7865;50.918;4.510;2024-01-07T06:53:34;44.00;;;25.53;;
15526;SDS011;7865;50.918;4.510;2024-01-07T06:58:36;42.50;;;23.33;;
15526;SDS011;7865;50.918;4.510;2024-01-07T07:03:37;46.80;;;25.10;;
15526;SDS011;7865;50.918;4.510;2024-01-07T07:08:38;55.57;;;26.83;;
15526;SDS011;7865;50.918;4.510;2024-01-07T07:13:39;51.33;;;26.17;;
15526;SDS011;7865;50.918;4.510;2024-01-07T07:18:40;49.70;;;26.30;;
15526;SDS011;7865;50.918;4.510;2024-01-07T07:23:42;54.23;;;26.97;;
15526;SDS011;7865;50.918;4.510;2024-01-07T07:28:43;53.70;;;28.67;;
15526;SDS011;7865;50.918;4.510;2024-01-07T07:33:44;59.43;;;29.27;;
15526;SDS011;7865;50.918;4.510;2024-01-07T07:38:45;59.73;;;28.03;;
15526;SDS011;7865;50.918;4.510;2024-01-07T07:43:47;55.17;;;27.77;;
15526;SDS011;7865;50.918;4.510;2024-01-07T07:48:48;53.83;;;28.30;;
15526;SDS011;7865;50.918;4.510;2024-01-07T07:53:49;51.90;;;27.10;;
15526;SDS011;7865;50.918;4.510;2024-01-07T07:58:50;51.73;;;27.47;;
15526;SDS011;7865;50.918;4.510;2024-01-07T08:03:51;47.90;;;25.33;;
15526;SDS011;7865;50.918;4.510;2024-01-07T08:08:53;46.83;;;24.73;;
15526;SDS011;7865;50.918;4.510;2024-01-07T08:13:54;43.27;;;23.30;;
15526;SDS011;7865;50.918;4.510;2024-01-07T08:18:55;52.07;;;24.67;;
15526;SDS011;7865;50.918;4.510;2024-01-07T08:23:58;40.60;;;22.77;;
15526;SDS011;7865;50.918;4.510;2024-01-07T08:28:59;43.90;;;22.80;;
15526;SDS011;7865;50.918;4.510;2024-01-07T08:34:01;36.40;;;21.60;;
15526;SDS011;7865;50.918;4.510;2024-01-07T08:39:03;38.80;;;20.17;;
15526;SDS011;7865;50.918;4.510;2024-01-07T08:44:04;35.07;;;19.57;;
15526;SDS011;7865;50.918;4.510;2024-01-07T08:49:05;33.07;;;19.43;;
15526;SDS011;7865;50.918;4.510;2024-01-07T08:54:06;32.20;;;19.97;;
15526;SDS011;7865;50.918;4.510;2024-01-07T08:59:08;33.17;;;19.47;;
15526;SDS011;7865;50.918;4.510;2024-01-07T09:04:09;34.57;;;21.63;;
15526;SDS011;7865;50.918;4.510;2024-01-07T09:09:10;32.13;;;21.00;;
15526;SDS011;7865;50.918;4.510;2024-01-07T09:14:11;37.00;;;21.90;;
15526;SDS011;7865;50.918;4.510;2024-01-07T09:19:12;33.73;;;21.07;;
15526;SDS011;7865;50.918;4.510;2024-01-07T09:24:16;34.87;;;21.93;;
15526;SDS011;7865;50.918;4.510;2024-01-07T09:29:17;32.10;;;20.13;;
15526;SDS011;7865;50.918;4.510;2024-01-07T09:34:18;31.37;;;20.23;;
15526;SDS011;7865;50.918;4.510;2024-01-07T09:39:20;33.30;;;22.07;;
15526;SDS011;7865;50.918;4.510;2024-01-07T09:44:21;32.70;;;21.20;;
15526;SDS011;7865;50.918;4.510;2024-01-07T09:49:23;30.37;;;20.87;;
15526;SDS011;7865;50.918;4.510;2024-01-07T09:59:49;33.53;;;21.97;;
15526;SDS011;7865;50.918;4.510;2024-01-07T10:04:51;38.73;;;22.43;;
15526;SDS011;7865;50.918;4.510;2024-01-07T10:09:55;32.23;;;21.87;;
15526;SDS011;7865;50.918;4.510;2024-01-07T10:21:06;34.80;;;22.10;;
15526;SDS011;7865;50.918;4.510;2024-01-07T10:26:10;36.67;;;24.80;;
15526;SDS011;7865;50.918;4.510;2024-01-07T10:37:11;37.00;;;23.57;;
15526;SDS011;7865;50.918;4.510;2024-01-07T10:42:13;36.63;;;22.40;;
15526;SDS011;7865;50.918;4.510;2024-01-07T10:58:36;28.37;;;19.00;;
15526;SDS011;7865;50.918;4.510;2024-01-07T11:13:55;26.20;;;16.67;;
15526;SDS011;7865;50.918;4.510;2024-01-07T11:19:01;28.43;;;18.77;;
15526;SDS011;7865;50.918;4.510;2024-01-07T11:24:03;29.30;;;17.57;;
15526;SDS011;7865;50.918;4.510;2024-01-07T11:29:05;29.00;;;18.17;;
15526;SDS011;7865;50.918;4.510;2024-01-07T11:34:09;27.47;;;17.47;;
15526;SDS011;7865;50.918;4.510;2024-01-07T11:39:12;24.97;;;16.20;;
15526;SDS011;7865;50.918;4.510;2024-01-07T11:44:13;27.00;;;17.20;;
15526;SDS011;7865;50.918;4.510;2024-01-07T11:49:15;26.47;;;17.00;;
15526;SDS011;7865;50.918;4.510;2024-01-07T11:54:17;23.63;;;16.47;;
15526;SDS011;7865;50.918;4.510;2024-01-07T11:59:18;28.93;;;16.67;;
15526;SDS011;7865;50.918;4.510;2024-01-07T12:04:20;22.33;;;14.40;;
15526;SDS011;7865;50.918;4.510;2024-01-07T12:09:21;25.57;;;17.00;;
15526;SDS011;7865;50.918;4.510;2024-01-07T12:14:24;22.20;;;15.53;;
15526;SDS011;7865;50.918;4.510;2024-01-07T12:19:27;23.07;;;15.37;;
15526;SDS011;7865;50.918;4.510;2024-01-07T12:24:30;26.87;;;15.57;;
15526;SDS011;7865;50.918;4.510;2024-01-07T12:29:31;27.03;;;16.53;;
15526;SDS011;7865;50.918;4.510;2024-01-07T12:34:32;22.97;;;14.70;;
15526;SDS011;7865;50.918;4.510;2024-01-07T12:39:33;21.57;;;13.67;;
15526;SDS011;7865;50.918;4.510;2024-01-07T12:44:38;23.70;;;14.40;;
15526;SDS011;7865;50.918;4.510;2024-01-07T12:49:39;19.70;;;14.93;;
15526;SDS011;7865;50.918;4.510;2024-01-07T12:54:40;19.37;;;13.90;;
15526;SDS011;7865;50.918;4.510;2024-01-07T12:59:41;23.57;;;14.73;;
15526;SDS011;7865;50.918;4.510;2024-01-07T13:04:42;26.30;;;16.73;;
15526;SDS011;7865;50.918;4.510;2024-01-07T13:09:44;20.07;;;14.63;;
15526;SDS011;7865;50.918;4.510;2024-01-07T13:14:45;20.73;;;14.40;;
15526;SDS011;7865;50.918;4.510;2024-01-07T13:19:47;19.47;;;14.27;;
15526;SDS011;7865;50.918;4.510;2024-01-07T13:24:49;18.00;;;14.53;;
15526;SDS011;7865;50.918;4.510;2024-01-07T13:29:51;19.87;;;14.13;;
15526;SDS011;7865;50.918;4.510;2024-01-07T13:34:52;19.83;;;14.73;;
15526;SDS011;7865;50.918;4.510;2024-01-07T13:39:54;18.43;;;13.80;;
15526;SDS011;7865;50.918;4.510;2024-01-07T13:44:55;15.03;;;12.33;;
15526;SDS011;7865;50.918;4.510;2024-01-07T13:49:56;17.20;;;13.17;;
15526;SDS011;7865;50.918;4.510;2024-01-07T13:54:58;17.73;;;13.50;;
15526;SDS011;7865;50.918;4.510;2024-01-07T13:59:59;18.37;;;14.47;;
15526;SDS011;7865;50.918;4.510;2024-01-07T14:05:01;20.77;;;13.13;;
15526;SDS011;7865;50.918;4.510;2024-01-07T14:10:02;18.53;;;13.03;;
15526;SDS011;7865;50.918;4.510;2024-01-07T14:15:04;15.87;;;13.20;;
15526;SDS011;7865;50.918;4.510;2024-01-07T14:20:06;19.33;;;14.67;;
15526;SDS011;7865;50.918;4.510;2024-01-07T14:25:08;15.87;;;12.17;;
15526;SDS011;7865;50.918;4.510;2024-01-07T14:30:10;19.43;;;14.03;;
15526;SDS011;7865;50.918;4.510;2024-01-07T14:46:20;19.90;;;14.87;;
15526;SDS011;7865;50.918;4.510;2024-01-07T14:51:21;22.40;;;15.30;;
15526;SDS011;7865;50.918;4.510;2024-01-07T14:56:23;19.90;;;14.93;;
15526;SDS011;7865;50.918;4.510;2024-01-07T15:01:24;17.00;;;14.10;;
15526;SDS011;7865;50.918;4.510;2024-01-07T15:06:28;19.73;;;14.37;;
15526;SDS011;7865;50.918;4.510;2024-01-07T15:11:30;19.63;;;13.07;;
15526;SDS011;7865;50.918;4.510;2024-01-07T15:16:31;19.23;;;14.17;;
15526;SDS011;7865;50.918;4.510;2024-01-07T15:21:32;19.77;;;13.37;;
15526;SDS011;7865;50.918;4.510;2024-01-07T15:26:33;16.50;;;13.07;;
15526;SDS011;7865;50.918;4.510;2024-01-07T15:31:36;16.37;;;13.37;;
15526;SDS011;7865;50.918;4.510;2024-01-07T15:36:38;15.87;;;13.07;;
15526;SDS011;7865;50.918;4.510;2024-01-07T15:41:41;16.43;;;12.80;;
15526;SDS011;7865;50.918;4.510;2024-01-07T15:46:42;15.30;;;11.60;;
15526;SDS011;7865;50.918;4.510;2024-01-07T15:51:43;17.87;;;12.77;;
15526;SDS011;7865;50.918;4.510;2024-01-07T15:56:45;16.77;;;12.30;;
15526;SDS011;7865;50.918;4.510;2024-01-07T16:01:47;14.97;;;12.00;;
15526;SDS011;7865;50.918;4.510;2024-01-07T16:06:49;17.63;;;13.10;;
15526;SDS011;7865;50.918;4.510;2024-01-07T16:11:50;14.67;;;12.57;;
15526;SDS011;7865;50.918;4.510;2024-01-07T16:16:52;10.97;;;8.83;;
15526;SDS011;7865;50.918;4.510;2024-01-07T16:21:53;7.47;;;6.37;;
15526;SDS011;7865;50.918;4.510;2024-01-07T16:26:55;6.70;;;5.87;;
15526;SDS011;7865;50.918;4.510;2024-01-07T16:31:56;6.17;;;5.27;;
15526;SDS011;7865;50.918;4.510;2024-01-07T16:36:57;7.13;;;5.10;;
15526;SDS011;7865;50.918;4.510;2024-01-07T16:41:59;4.80;;;4.30;;
15526;SDS011;7865;50.918;4.510;2024-01-07T16:47:00;6.00;;;4.40;;
15526;SDS011;7865;50.918;4.510;2024-01-07T16:52:01;7.93;;;4.57;;
15526;SDS011;7865;50.918;4.510;2024-01-07T16:57:03;4.27;;;3.80;;
15526;SDS011;7865;50.918;4.510;2024-01-07T17:02:05;4.90;;;3.93;;
15526;SDS011;7865;50.918;4.510;2024-01-07T17:07:09;5.50;;;4.53;;
15526;SDS011;7865;50.918;4.510;2024-01-07T17:12:10;6.67;;;5.13;;
15526;SDS011;7865;50.918;4.510;2024-01-07T17:17:11;4.53;;;4.03;;
15526;SDS011;7865;50.918;4.510;2024-01-07T17:22:13;5.57;;;4.73;;
15526;SDS011;7865;50.918;4.510;2024-01-07T17:27:15;4.83;;;4.30;;
15526;SDS011;7865;50.918;4.510;2024-01-07T17:32:17;5.53;;;4.60;;
15526;SDS011;7865;50.918;4.510;2024-01-07T17:37:23;7.80;;;5.10;;
15526;SDS011;7865;50.918;4.510;2024-01-07T17:42:26;5.13;;;4.53;;
15526;SDS011;7865;50.918;4.510;2024-01-07T17:47:28;5.73;;;4.57;;
15526;SDS011;7865;50.918;4.510;2024-01-07T17:52:29;6.87;;;5.07;;
15526;SDS011;7865;50.918;4.510;2024-01-07T17:57:30;6.10;;;4.60;;
15526;SDS011;7865;50.918;4.510;2024-01-07T18:02:33;5.60;;;4.40;;
15526;SDS011;7865;50.918;4.510;2024-01-07T18:07:35;6.13;;;4.80;;
15526;SDS011;7865;50.918;4.510;2024-01-07T18:12:37;5.17;;;4.20;;
15526;SDS011;7865;50.918;4.510;2024-01-07T18:17:38;4.10;;;3.70;;
15526;SDS011;7865;50.918;4.510;2024-01-07T18:22:43;3.77;;;3.33;;
15526;SDS011;7865;50.918;4.510;2024-01-07T18:27:44;3.60;;;3.23;;
15526;SDS011;7865;50.918;4.510;2024-01-07T18:32:45;5.60;;;3.63;;
15526;SDS011;7865;50.918;4.510;2024-01-07T18:37:47;4.67;;;3.40;;
15526;SDS011;7865;50.918;4.510;2024-01-07T18:42:50;7.93;;;4.50;;
15526;SDS011;7865;50.918;4.510;2024-01-07T18:47:52;7.07;;;4.67;;
15526;SDS011;7865;50.918;4.510;2024-01-07T18:52:53;5.07;;;4.10;;
15526;SDS011;7865;50.918;4.510;2024-01-07T18:57:55;5.80;;;3.80;;
15526;SDS011;7865;50.918;4.510;2024-01-07T19:02:56;8.87;;;5.43;;
15526;SDS011;7865;50.918;4.510;2024-01-07T19:07:57;6.30;;;4.37;;
15526;SDS011;7865;50.918;4.510;2024-01-07T19:12:59;5.57;;;3.40;;
15526;SDS011;7865;50.918;4.510;2024-01-07T19:18:01;5.10;;;3.43;;
15526;SDS011;7865;50.918;4.510;2024-01-07T19:23:03;5.27;;;4.07;;
15526;SDS011;7865;50.918;4.510;2024-01-07T19:28:07;5.73;;;4.13;;
15526;SDS011;7865;50.918;4.510;2024-01-07T19:33:08;8.33;;;3.90;;
15526;SDS011;7865;50.918;4.510;2024-01-07T19:38:11;5.10;;;4.20;;
15526;SDS011;7865;50.918;4.510;2024-01-07T19:43:13;5.23;;;3.47;;
15526;SDS011;7865;50.918;4.510;2024-01-07T19:48:16;4.37;;;3.67;;
15526;SDS011;7865;50.918;4.510;2024-01-07T19:53:17;5.67;;;4.07;;
15526;SDS011;7865;50.918;4.510;2024-01-07T19:58:30;5.80;;;4.70;;
15526;SDS011;7865;50.918;4.510;2024-01-07T20:03:32;4.97;;;4.10;;
15526;SDS011;7865;50.918;4.510;2024-01-07T20:08:33;4.57;;;3.87;;
15526;SDS011;7865;50.918;4.510;2024-01-07T20:13:36;6.07;;;3.80;;
15526;SDS011;7865;50.918;4.510;2024-01-07T20:18:38;6.43;;;3.50;;
15526;SDS011;7865;50.918;4.510;2024-01-07T20:23:39;7.37;;;3.83;;
15526;SDS011;7865;50.918;4.510;2024-01-07T20:28:41;4.87;;;3.70;;
15526;SDS011;7865;50.918;4.510;2024-01-07T20:33:45;5.63;;;3.80;;
15526;SDS011;7865;50.918;4.510;2024-01-07T20:38:47;5.13;;;3.90;;
15526;SDS011;7865;50.918;4.510;2024-01-07T20:43:48;10.13;;;4.93;;
15526;SDS011;7865;50.918;4.510;2024-01-07T20:48:50;8.80;;;5.60;;
15526;SDS011;7865;50.918;4.510;2024-01-07T20:53:52;5.90;;;4.50;;
15526;SDS011;7865;50.918;4.510;2024-01-07T20:58:53;5.90;;;4.40;;
15526;SDS011;7865;50.918;4.510;2024-01-07T21:03:54;6.07;;;4.00;;
15526;SDS011;7865;50.918;4.510;2024-01-07T21:08:58;6.87;;;4.10;;
15526;SDS011;7865;50.918;4.510;2024-01-07T21:14:00;8.00;;;5.13;;
15526;SDS011;7865;50.918;4.510;2024-01-07T21:19:02;6.63;;;4.67;;
15526;SDS011;7865;50.918;4.510;2024-01-07T21:24:03;9.07;;;5.33;;
15526;SDS011;7865;50.918;4.510;2024-01-07T21:29:05;7.77;;;5.37;;
15526;SDS011;7865;50.918;4.510;2024-01-07T21:34:06;8.83;;;4.83;;
15526;SDS011;7865;50.918;4.510;2024-01-07T21:39:08;8.43;;;5.20;;
15526;SDS011;7865;50.918;4.510;2024-01-07T21:44:10;10.37;;;5.93;;
15526;SDS011;7865;50.918;4.510;2024-01-07T21:49:11;10.57;;;6.03;;
15526;SDS011;7865;50.918;4.510;2024-01-07T21:54:15;7.90;;;6.03;;
15526;SDS011;7865;50.918;4.510;2024-01-07T21:59:16;9.90;;;6.67;;
15526;SDS011;7865;50.918;4.510;2024-01-07T22:04:17;8.63;;;5.83;;
15526;SDS011;7865;50.918;4.510;2024-01-07T22:09:18;17.03;;;7.20;;
15526;SDS011;7865;50.918;4.510;2024-01-07T22:14:20;11.93;;;7.13;;
15526;SDS011;7865;50.918;4.510;2024-01-07T22:19:21;10.83;;;7.00;;
15526;SDS011;7865;50.918;4.510;2024-01-07T22:24:23;10.80;;;6.87;;
15526;SDS011;7865;50.918;4.510;2024-01-07T22:29:24;9.10;;;5.90;;
15526;SDS011;7865;50.918;4.510;2024-01-07T22:34:25;10.33;;;7.80;;
15526;SDS011;7865;50.918;4.510;2024-01-07T22:39:26;13.00;;;7.87;;
15526;SDS011;7865;50.918;4.510;2024-01-07T22:44:28;11.33;;;7.37;;
15526;SDS011;7865;50.918;4.510;2024-01-07T22:49:30;14.60;;;7.87;;
15526;SDS011;7865;50.918;4.510;2024-01-07T22:54:31;11.73;;;8.37;;
15526;SDS011;7865;50.918;4.510;2024-01-07T22:59:34;12.83;;;7.53;;
15526;SDS011;7865;50.918;4.510;2024-01-07T23:04:35;23.73;;;9.17;;
15526;SDS011;7865;50.918;4.510;2024-01-07T23:09:37;13.83;;;8.37;;
15526;SDS011;7865;50.918;4.510;2024-01-07T23:14:38;15.27;;;9.43;;
15526;SDS011;7865;50.918;4.510;2024-01-07T23:19:39;12.07;;;8.87;;
15526;SDS011;7865;50.918;4.510;2024-01-07T23:24:40;13.40;;;9.40;;
15526;SDS011;7865;50.918;4.510;2024-01-07T23:29:42;14.40;;;9.70;;
15526;SDS011;7865;50.918;4.510;2024-01-07T23:34:43;16.63;;;8.97;;
15526;SDS011;7865;50.918;4.510;2024-01-07T23:39:44;15.57;;;9.47;;
15526;SDS011;7865;50.918;4.510;2024-01-07T23:44:45;14.27;;;10.00;;
15526;SDS011;7865;50.918;4.510;2024-01-07T23:49:47;19.90;;;10.93;;
15526;SDS011;7865;50.918;4.510;2024-01-07T23:54:48;18.87;;;10.33;;
15526;SDS011;7865;50.918;4.510;2024-01-07T23:59:49;17.23;;;11.00;;
